sensor_id;sensor_type;location;lat;lon;timestamp;P1;durP1;ratioP1;P2;durP2;ratioP2
23494;SDS011;26107;50.832;2.950;2023-05-14T00:02:43;34.25;;;18.42;;
23494;SDS011;26107;50.832;2.950;2023-05-14T00:17:44;31.65;;;16.52;;
23494;SDS011;26107;50.832;2.950;2023-05-14T00:32:45;25.70;;;17.17;;
23494;SDS011;26107;50.832;2.950;2023-05-14T00:47:46;29.17;;;17.17;;
23494;SDS011;26107;50.832;2.950;2023-05-14T01:02:47;28.48;;;16.02;;
23494;SDS011;26107;50.832;2.950;2023-05-14T01:17:52;33.80;;;16.92;;
23494;SDS011;26107;50.832;2.950;2023-05-14T01:32:58;30.73;;;17.27;;
23494;SDS011;26107;50.832;2.950;2023-05-14T01:48:03;35.30;;;19.10;;
23494;SDS011;26107;50.832;2.950;2023-05-14T02:03:04;27.75;;;19.55;;
23494;SDS011;26107;50.832;2.950;2023-05-14T02:18:04;37.10;;;23.15;;
23494;SDS011;26107;50.832;2.950;2023-05-14T02:33:05;35.38;;;22.90;;
23494;SDS011;26107;50.832;2.950;2023-05-14T02:48:06;39.38;;;22.80;;
23494;SDS011;26107;50.832;2.950;2023-05-14T03:03:06;38.92;;;24.02;;
23494;SDS011;26107;50.832;2.950;2023-05-14T03:18:07;42.97;;;24.90;;
23494;SDS011;26107;50.832;2.950;2023-05-14T03:33:07;42.90;;;24.85;;
23494;SDS011;26107;50.832;2.950;2023-05-14T03:48:08;46.20;;;26.42;;
23494;SDS011;26107;50.832;2.950;2023-05-14T04:03:08;50.65;;;28.63;;
23494;SDS011;26107;50.832;2.950;2023-05-14T04:18:09;45.75;;;29.13;;
23494;SDS011;26107;50.832;2.950;2023-05-14T04:33:10;46.00;;;24.55;;
23494;SDS011;26107;50.832;2.950;2023-05-14T04:48:11;42.00;;;23.73;;
23494;SDS011;26107;50.832;2.950;2023-05-14T05:03:13;46.28;;;24.95;;
23494;SDS011;26107;50.832;2.950;2023-05-14T05:18:13;46.95;;;26.52;;
23494;SDS011;26107;50.832;2.950;2023-05-14T05:33:14;44.67;;;25.17;;
23494;SDS011;26107;50.832;2.950;2023-05-14T05:48:14;43.22;;;28.52;;
23494;SDS011;26107;50.832;2.950;2023-05-14T06:03:15;35.55;;;21.50;;
23494;SDS011;26107;50.832;2.950;2023-05-14T06:18:16;27.75;;;19.00;;
23494;SDS011;26107;50.832;2.950;2023-05-14T06:33:16;36.05;;;23.58;;
23494;SDS011;26107;50.832;2.950;2023-05-14T06:48:17;27.48;;;19.75;;
23494;SDS011;26107;50.832;2.950;2023-05-14T07:03:18;29.67;;;21.50;;
23494;SDS011;26107;50.832;2.950;2023-05-14T07:18:18;38.97;;;25.23;;
23494;SDS011;26107;50.832;2.950;2023-05-14T07:33:19;28.85;;;19.30;;
23494;SDS011;26107;50.832;2.950;2023-05-14T07:48:20;23.90;;;18.00;;
23494;SDS011;26107;50.832;2.950;2023-05-14T08:03:21;26.92;;;18.90;;
23494;SDS011;26107;50.832;2.950;2023-05-14T08:18:21;27.13;;;17.77;;
23494;SDS011;26107;50.832;2.950;2023-05-14T08:33:22;27.50;;;18.38;;
23494;SDS011;26107;50.832;2.950;2023-05-14T08:48:22;27.88;;;18.15;;
23494;SDS011;26107;50.832;2.950;2023-05-14T09:03:28;27.45;;;17.52;;
23494;SDS011;26107;50.832;2.950;2023-05-14T09:18:29;28.52;;;17.80;;
23494;SDS011;26107;50.832;2.950;2023-05-14T09:33:30;20.88;;;15.85;;
23494;SDS011;26107;50.832;2.950;2023-05-14T09:48:31;21.10;;;16.33;;
23494;SDS011;26107;50.832;2.950;2023-05-14T10:03:32;24.23;;;15.82;;
23494;SDS011;26107;50.832;2.950;2023-05-14T10:18:35;26.63;;;18.87;;
23494;SDS011;26107;50.832;2.950;2023-05-14T10:33:47;22.00;;;17.60;;
23494;SDS011;26107;50.832;2.950;2023-05-14T10:48:49;25.63;;;17.55;;
23494;SDS011;26107;50.832;2.950;2023-05-14T11:03:50;26.40;;;17.57;;
23494;SDS011;26107;50.832;2.950;2023-05-14T11:18:53;27.58;;;18.15;;
23494;SDS011;26107;50.832;2.950;2023-05-14T11:34:01;24.77;;;19.07;;
23494;SDS011;26107;50.832;2.950;2023-05-14T11:49:04;29.88;;;18.00;;
23494;SDS011;26107;50.832;2.950;2023-05-14T12:04:05;26.17;;;16.40;;
23494;SDS011;26107;50.832;2.950;2023-05-14T12:19:07;19.08;;;15.45;;
23494;SDS011;26107;50.832;2.950;2023-05-14T12:34:09;14.60;;;12.05;;
23494;SDS011;26107;50.832;2.950;2023-05-14T13:04:10;18.88;;;12.23;;
23494;SDS011;26107;50.832;2.950;2023-05-14T13:19:11;23.60;;;14.30;;
23494;SDS011;26107;50.832;2.950;2023-05-14T13:49:12;16.75;;;12.60;;
23494;SDS011;26107;50.832;2.950;2023-05-14T14:04:13;17.77;;;10.95;;
23494;SDS011;26107;50.832;2.950;2023-05-14T14:19:15;18.20;;;11.63;;
23494;SDS011;26107;50.832;2.950;2023-05-14T14:34:15;16.25;;;11.52;;
23494;SDS011;26107;50.832;2.950;2023-05-14T14:49:16;18.98;;;12.93;;
23494;SDS011;26107;50.832;2.950;2023-05-14T15:04:17;21.00;;;14.18;;
23494;SDS011;26107;50.832;2.950;2023-05-14T15:19:18;19.65;;;12.57;;
23494;SDS011;26107;50.832;2.950;2023-05-14T16:19:20;11.68;;;10.27;;
23494;SDS011;26107;50.832;2.950;2023-05-14T16:34:20;15.07;;;10.38;;
23494;SDS011;26107;50.832;2.950;2023-05-14T16:49:21;7.95;;;6.88;;
23494;SDS011;26107;50.832;2.950;2023-05-14T17:04:22;6.80;;;5.60;;
23494;SDS011;26107;50.832;2.950;2023-05-14T17:19:25;9.43;;;6.63;;
23494;SDS011;26107;50.832;2.950;2023-05-14T17:34:25;8.50;;;5.95;;
23494;SDS011;26107;50.832;2.950;2023-05-14T17:49:26;5.78;;;4.43;;
23494;SDS011;26107;50.832;2.950;2023-05-14T18:04:27;8.93;;;4.88;;
23494;SDS011;26107;50.832;2.950;2023-05-14T18:19:27;9.35;;;6.28;;
23494;SDS011;26107;50.832;2.950;2023-05-14T18:34:28;10.73;;;6.60;;
23494;SDS011;26107;50.832;2.950;2023-05-14T18:49:29;12.93;;;6.57;;
23494;SDS011;26107;50.832;2.950;2023-05-14T19:04:29;8.30;;;6.75;;
23494;SDS011;26107;50.832;2.950;2023-05-14T19:19:31;9.88;;;8.50;;
23494;SDS011;26107;50.832;2.950;2023-05-14T19:49:32;10.52;;;9.32;;
23494;SDS011;26107;50.832;2.950;2023-05-14T20:04:33;13.10;;;11.32;;
23494;SDS011;26107;50.832;2.950;2023-05-14T20:19:33;13.43;;;11.45;;
23494;SDS011;26107;50.832;2.950;2023-05-14T20:34:34;17.63;;;12.75;;
23494;SDS011;26107;50.832;2.950;2023-05-14T20:49:35;20.27;;;15.60;;
23494;SDS011;26107;50.832;2.950;2023-05-14T21:04:35;21.13;;;14.93;;
23494;SDS011;26107;50.832;2.950;2023-05-14T21:19:36;18.42;;;13.43;;
23494;SDS011;26107;50.832;2.950;2023-05-14T21:34:37;16.65;;;13.77;;
23494;SDS011;26107;50.832;2.950;2023-05-14T21:49:37;18.67;;;13.25;;
23494;SDS011;26107;50.832;2.950;2023-05-14T22:04:38;18.50;;;14.00;;
23494;SDS011;26107;50.832;2.950;2023-05-14T22:19:38;16.58;;;13.25;;
23494;SDS011;26107;50.832;2.950;2023-05-14T22:34:39;17.35;;;13.40;;
23494;SDS011;26107;50.832;2.950;2023-05-14T22:49:40;18.73;;;13.70;;
23494;SDS011;26107;50.832;2.950;2023-05-14T23:04:41;23.15;;;17.08;;
23494;SDS011;26107;50.832;2.950;2023-05-14T23:19:42;23.90;;;18.52;;
23494;SDS011;26107;50.832;2.950;2023-05-14T23:34:43;45.38;;;26.60;;
23494;SDS011;26107;50.832;2.950;2023-05-14T23:49:43;73.72;;;35.20;;
